createdAt,value
2018-11-10T00:00:43.078Z,140.60
2018-11-10T00:03:13.473Z,135.80
2018-11-10T00:05:44.061Z,136.93
2018-11-10T00:08:14.425Z,127.40
2018-11-10T00:10:44.857Z,121.77
2018-11-10T00:13:15.138Z,130.53
2018-11-10T00:15:45.580Z,123.33
2018-11-10T00:18:15.329Z,120.73
2018-11-10T00:20:45.635Z,124.63
2018-11-10T00:23:15.875Z,119.77
2018-11-10T00:25:46.382Z,115.37
2018-11-10T00:28:16.659Z,115.73
2018-11-10T00:30:47.004Z,120.27
2018-11-10T00:33:16.702Z,144.27
2018-11-10T00:35:47.015Z,140.97
2018-11-10T00:38:17.295Z,134.33
2018-11-10T00:40:47.945Z,112.53
2018-11-10T00:43:18.191Z,104.70
2018-11-10T00:45:48.631Z,115.37
2018-11-10T00:48:19.116Z,116.23
2018-11-10T00:50:49.449Z,106.47
2018-11-10T00:53:19.809Z,110.93
2018-11-10T00:55:50.239Z,116.03
2018-11-10T00:58:20.768Z,112.87
2018-11-10T01:00:51.129Z,123.60
2018-11-10T01:03:21.525Z,122.57
2018-11-10T01:05:51.730Z,128.17
2018-11-10T01:08:21.941Z,123.17
2018-11-10T01:10:52.533Z,115.57
2018-11-10T01:13:22.955Z,126.23
2018-11-10T01:15:53.644Z,123.53
2018-11-10T01:18:23.985Z,141.60
2018-11-10T01:20:53.775Z,169.00
2018-11-10T01:23:24.017Z,217.53
2018-11-10T01:25:53.732Z,142.33
2018-11-10T01:28:24.115Z,187.17
2018-11-10T01:30:54.569Z,151.03
2018-11-10T01:33:24.873Z,146.73
2018-11-10T01:35:55.127Z,150.93
2018-11-10T01:38:24.865Z,116.53
2018-11-10T01:40:55.186Z,113.20
2018-11-10T01:43:25.577Z,145.83
2018-11-10T01:45:55.635Z,158.13
2018-11-10T01:48:25.927Z,131.67
2018-11-10T01:50:56.255Z,171.40
2018-11-10T01:53:25.955Z,134.47
2018-11-10T01:55:56.296Z,118.07
2018-11-10T01:58:26.671Z,110.73
2018-11-10T02:00:57.062Z,116.97
2018-11-10T02:03:27.488Z,117.33
2018-11-10T02:05:57.904Z,118.23
2018-11-10T02:08:28.304Z,129.50
2018-11-10T02:10:58.119Z,123.40
2018-11-10T02:13:28.441Z,131.57
2018-11-10T02:15:58.903Z,118.37
2018-11-10T02:18:29.176Z,121.07
2018-11-10T02:20:59.712Z,112.50
2018-11-10T02:23:30.348Z,127.13
2018-11-10T02:26:00.538Z,124.67
2018-11-10T02:28:30.768Z,130.03
2018-11-10T02:31:01.140Z,120.90
2018-11-10T02:33:31.519Z,112.73
2018-11-10T02:36:02.025Z,123.67
2018-11-10T02:38:32.335Z,117.40
2018-11-10T02:41:02.816Z,116.50
2018-11-10T02:43:33.228Z,110.50
2018-11-10T02:46:03.849Z,113.90
2018-11-10T02:48:34.212Z,110.83
2018-11-10T02:51:03.949Z,112.83
2018-11-10T02:53:34.370Z,112.20
2018-11-10T02:56:04.677Z,107.53
2018-11-10T02:58:35.126Z,103.33
2018-11-10T03:01:05.658Z,106.77
2018-11-10T03:03:36.101Z,107.20
2018-11-10T03:06:06.682Z,105.83
2018-11-10T03:08:37.008Z,106.33
2018-11-10T03:11:06.804Z,101.37
2018-11-10T03:13:36.527Z,102.17
2018-11-10T03:16:07.327Z,102.67
2018-11-10T03:18:37.897Z,100.97
2018-11-10T03:21:07.639Z,105.53
2018-11-10T03:23:37.836Z,105.67
2018-11-10T03:26:08.153Z,118.57
2018-11-10T03:28:38.596Z,106.43
2018-11-10T03:31:08.927Z,106.73
2018-11-10T03:33:39.469Z,116.40
2018-11-10T03:36:09.723Z,114.13
2018-11-10T03:38:40.077Z,109.10
2018-11-10T03:41:09.780Z,110.90
2018-11-10T03:43:40.092Z,109.83
2018-11-10T03:46:10.424Z,116.87
2018-11-10T03:48:40.171Z,126.27
2018-11-10T03:51:10.468Z,116.63
2018-11-10T03:53:40.499Z,115.83
2018-11-10T03:56:10.712Z,115.27
2018-11-10T03:58:41.000Z,126.90
2018-11-10T04:01:11.383Z,114.53
2018-11-10T04:03:42.001Z,104.23
2018-11-10T04:06:12.480Z,105.73
2018-11-10T04:08:42.819Z,107.80
2018-11-10T04:11:13.059Z,110.83
2018-11-10T04:13:43.102Z,113.83
2018-11-10T04:16:13.343Z,101.27
2018-11-10T04:18:43.953Z,99.13
2018-11-10T04:21:14.280Z,89.77
2018-11-10T04:23:44.649Z,90.40
2018-11-10T04:26:15.074Z,87.50
2018-11-10T04:28:45.341Z,98.50
2018-11-10T04:31:15.774Z,99.83
2018-11-10T04:33:46.103Z,92.57
2018-11-10T04:36:16.468Z,88.53
2018-11-10T04:38:46.873Z,83.53
2018-11-10T04:41:17.424Z,91.53
2018-11-10T04:43:47.905Z,106.73
2018-11-10T04:46:18.201Z,110.20
2018-11-10T04:48:48.615Z,97.03
2018-11-10T04:51:19.032Z,100.57
2018-11-10T04:53:49.512Z,98.70
2018-11-10T04:56:19.838Z,99.30
2018-11-10T04:58:50.120Z,95.00
2018-11-10T05:01:20.566Z,97.70
2018-11-10T05:03:51.413Z,78.73
2018-11-10T05:06:21.853Z,81.57
2018-11-10T05:08:52.147Z,81.90
2018-11-10T05:11:21.834Z,83.37
2018-11-10T05:13:52.048Z,74.53
2018-11-10T05:16:22.392Z,76.37
2018-11-10T05:18:52.769Z,73.73
2018-11-10T05:21:23.384Z,79.30
2018-11-10T05:23:53.892Z,86.10
2018-11-10T05:26:24.305Z,94.47
2018-11-10T05:28:54.857Z,93.20
2018-11-10T05:31:25.164Z,81.33
2018-11-10T05:33:55.649Z,92.57
2018-11-10T05:36:25.944Z,89.40
2018-11-10T05:38:56.452Z,80.80
2018-11-10T05:41:26.852Z,88.90
2018-11-10T05:43:56.508Z,87.60
2018-11-10T05:46:26.692Z,87.60
2018-11-10T05:48:56.964Z,90.80
2018-11-10T05:51:27.437Z,78.80
2018-11-10T05:53:57.864Z,79.13
2018-11-10T05:56:28.399Z,81.57
2018-11-10T05:58:58.243Z,92.27
2018-11-10T06:01:28.641Z,88.03
2018-11-10T06:03:58.200Z,99.93
2018-11-10T06:06:28.407Z,97.87
2018-11-10T06:08:58.831Z,107.70
2018-11-10T06:11:29.043Z,104.40
2018-11-10T06:13:59.348Z,78.27
2018-11-10T06:16:29.660Z,84.47
2018-11-10T06:18:59.540Z,82.70
2018-11-10T06:21:29.867Z,80.37
2018-11-10T06:24:00.284Z,83.57
2018-11-10T06:26:30.801Z,85.50
2018-11-10T06:29:01.193Z,81.77
2018-11-10T06:31:31.428Z,95.87
2018-11-10T06:34:01.753Z,89.87
2018-11-10T06:36:32.144Z,125.10
2018-11-10T06:39:01.929Z,96.47
2018-11-10T06:41:32.268Z,85.93
2018-11-10T06:44:02.725Z,83.37
2018-11-10T06:46:33.103Z,74.57
2018-11-10T06:49:03.508Z,84.67
2018-11-10T06:51:33.876Z,84.50
2018-11-10T06:54:04.302Z,86.70
2018-11-10T06:56:34.635Z,91.80
2018-11-10T06:59:04.482Z,90.10
2018-11-10T07:01:34.913Z,90.57
2018-11-10T07:04:05.332Z,79.70
2018-11-10T07:06:35.603Z,82.40
2018-11-10T07:09:08.401Z,92.03
2018-11-10T07:11:38.700Z,93.60
2018-11-10T07:14:09.307Z,85.33
2018-11-10T07:16:39.791Z,90.23
2018-11-10T07:19:09.483Z,85.20
2018-11-10T07:21:39.691Z,79.37
2018-11-10T07:24:10.271Z,87.43
2018-11-10T07:26:40.561Z,80.30
2018-11-10T07:29:10.419Z,77.90
2018-11-10T07:31:40.640Z,77.03
2018-11-10T07:34:11.149Z,76.73
2018-11-10T07:36:41.704Z,78.87
2018-11-10T07:39:12.609Z,71.03
2018-11-10T07:41:42.298Z,70.23
2018-11-10T07:44:12.957Z,71.53
2018-11-10T07:46:42.667Z,73.87
2018-11-10T07:49:12.963Z,72.37
2018-11-10T07:51:43.276Z,73.80
2018-11-10T07:54:13.576Z,74.63
2018-11-10T07:56:43.844Z,69.60
2018-11-10T07:59:13.656Z,68.77
2018-11-10T08:01:43.819Z,67.33
2018-11-10T08:04:14.313Z,60.57
2018-11-10T08:06:44.660Z,64.67
2018-11-10T08:09:14.935Z,58.77
2018-11-10T08:11:45.088Z,60.03
2018-11-10T08:14:15.520Z,55.57
2018-11-10T08:16:45.771Z,51.93
2018-11-10T08:19:16.032Z,52.77
2018-11-10T08:21:46.468Z,50.77
2018-11-10T08:24:16.314Z,48.63
2018-11-10T08:26:46.741Z,51.67
2018-11-10T08:29:17.677Z,50.73
2018-11-10T08:31:48.052Z,47.97
2018-11-10T08:34:17.711Z,47.93
2018-11-10T08:36:47.876Z,50.97
2018-11-10T08:39:18.431Z,47.63
2018-11-10T08:41:48.784Z,49.80
2018-11-10T08:44:19.316Z,47.83
2018-11-10T08:46:49.675Z,46.53
2018-11-10T08:49:19.976Z,50.30
2018-11-10T08:51:50.229Z,49.00
2018-11-10T08:54:20.864Z,48.00
2018-11-10T08:56:50.404Z,48.87
2018-11-10T08:59:20.945Z,47.90
2018-11-10T09:01:51.246Z,46.23
2018-11-10T09:04:20.986Z,45.87
2018-11-10T09:06:51.309Z,51.63
2018-11-10T09:09:21.692Z,47.40
2018-11-10T09:11:52.000Z,46.73
2018-11-10T09:14:22.360Z,43.17
2018-11-10T09:16:52.956Z,48.60
2018-11-10T09:19:23.608Z,44.93
2018-11-10T09:21:53.411Z,48.30
2018-11-10T09:24:23.100Z,47.53
2018-11-10T09:26:53.334Z,44.47
2018-11-10T09:29:23.802Z,42.93
2018-11-10T09:31:54.179Z,43.50
2018-11-10T09:34:24.719Z,42.03
2018-11-10T09:36:55.068Z,40.67
2018-11-10T09:39:24.965Z,43.27
2018-11-10T09:41:54.706Z,44.47
2018-11-10T09:44:25.298Z,45.20
2018-11-10T09:46:55.845Z,45.90
2018-11-10T09:49:25.762Z,42.00
2018-11-10T09:51:56.319Z,40.03
2018-11-10T09:54:26.848Z,40.63
2018-11-10T09:56:57.133Z,39.90
2018-11-10T09:59:27.142Z,39.80
2018-11-10T10:01:58.024Z,38.50
2018-11-10T10:04:27.481Z,40.73
2018-11-10T10:06:57.203Z,36.90
2018-11-10T10:09:26.965Z,39.67
2018-11-10T10:11:57.139Z,40.73
2018-11-10T10:14:27.242Z,36.57
2018-11-10T10:16:57.584Z,41.67
2018-11-10T10:19:27.323Z,37.80
2018-11-10T10:21:57.706Z,37.20
2018-11-10T10:24:27.992Z,35.00
2018-11-10T10:26:58.572Z,37.60
2018-11-10T10:29:28.476Z,37.10
2018-11-10T10:31:58.092Z,35.73
2018-11-10T10:34:27.873Z,38.60
2018-11-10T10:36:58.200Z,39.17
2018-11-10T10:39:28.578Z,36.20
2018-11-10T10:41:59.067Z,40.47
2018-11-10T10:44:28.895Z,36.30
2018-11-10T10:46:59.281Z,37.40
2018-11-10T10:49:29.649Z,38.03
2018-11-10T10:51:59.543Z,42.17
2018-11-10T10:54:29.181Z,38.70
2018-11-10T10:56:59.415Z,42.83
2018-11-10T10:59:29.910Z,32.70
2018-11-10T11:02:04.953Z,40.80
2018-11-10T11:04:40.220Z,36.67
2018-11-10T11:07:10.658Z,40.17
2018-11-10T11:09:41.250Z,46.27
2018-11-10T11:12:11.860Z,37.23
2018-11-10T11:14:42.438Z,36.97
2018-11-10T11:17:12.866Z,37.50
2018-11-10T11:19:43.272Z,42.50
2018-11-10T11:22:13.408Z,32.53
2018-11-10T11:24:43.826Z,37.13
2018-11-10T11:27:14.282Z,31.07
2018-11-10T11:29:44.800Z,31.17
2018-11-10T11:32:15.212Z,32.77
2018-11-10T11:34:45.335Z,31.27
2018-11-10T11:37:15.732Z,30.30
2018-11-10T11:39:45.435Z,26.57
2018-11-10T11:42:15.180Z,31.87
2018-11-10T11:44:45.461Z,25.90
2018-11-10T11:47:15.892Z,26.07
2018-11-10T11:49:46.417Z,26.07
2018-11-10T11:52:16.983Z,29.43
2018-11-10T11:54:47.348Z,30.43
2018-11-10T11:57:17.940Z,29.90
2018-11-10T11:59:48.279Z,32.73
2018-11-10T12:02:18.754Z,33.20
2018-11-10T12:04:49.060Z,27.27
2018-11-10T12:07:19.589Z,22.77
2018-11-10T12:09:49.851Z,27.90
2018-11-10T12:12:20.340Z,35.03
2018-11-10T12:14:50.663Z,29.73
2018-11-10T12:17:21.192Z,29.73
2018-11-10T12:19:51.592Z,34.23
2018-11-10T12:22:21.901Z,25.13
2018-11-10T12:24:52.168Z,24.37
2018-11-10T12:27:22.564Z,23.40
2018-11-10T12:29:52.999Z,25.87
2018-11-10T12:32:23.401Z,25.57
2018-11-10T12:34:53.676Z,25.40
2018-11-10T12:37:23.493Z,33.40
2018-11-10T12:39:53.260Z,31.63
2018-11-10T12:42:23.546Z,41.53
2018-11-10T12:44:53.961Z,32.07
2018-11-10T12:47:23.825Z,30.93
2018-11-10T12:49:54.047Z,29.33
2018-11-10T12:52:24.415Z,32.67
2018-11-10T12:54:54.607Z,37.63
2018-11-10T12:57:25.179Z,35.70
2018-11-10T12:59:54.939Z,28.37
2018-11-10T13:02:25.336Z,37.40
2018-11-10T13:04:55.852Z,29.73
2018-11-10T13:07:25.636Z,32.30
2018-11-10T13:09:55.873Z,29.23
2018-11-10T13:12:25.651Z,36.87
2018-11-10T13:14:55.864Z,28.50
2018-11-10T13:17:26.748Z,35.73
2018-11-10T13:19:57.331Z,31.40
2018-11-10T13:22:27.908Z,35.13
2018-11-10T13:24:58.332Z,31.40
2018-11-10T13:27:28.146Z,32.03
2018-11-10T13:29:58.519Z,31.80
2018-11-10T13:32:29.138Z,28.80
2018-11-10T13:34:59.737Z,27.53
2018-11-10T13:37:30.119Z,35.83
2018-11-10T13:40:00.725Z,33.07
2018-11-10T13:42:31.440Z,32.10
2018-11-10T13:45:01.829Z,34.77
2018-11-10T13:47:31.946Z,31.73
2018-11-10T13:50:02.342Z,36.43
2018-11-10T13:52:33.142Z,33.00
2018-11-10T13:55:03.227Z,27.87
2018-11-10T13:57:33.868Z,31.57
2018-11-10T14:00:03.615Z,29.67
2018-11-10T14:02:34.122Z,29.97
2018-11-10T14:05:04.524Z,27.67
2018-11-10T14:07:35.100Z,29.37
2018-11-10T14:10:05.934Z,29.07
2018-11-10T14:12:36.492Z,30.10
2018-11-10T14:15:07.121Z,28.37
2018-11-10T14:17:37.627Z,30.47
2018-11-10T14:20:10.273Z,33.10
2018-11-10T14:22:40.070Z,30.50
2018-11-10T14:25:11.667Z,34.10
2018-11-10T14:27:42.923Z,37.13
2018-11-10T14:30:14.848Z,41.37
2018-11-10T14:32:44.947Z,40.17
2018-11-10T14:35:14.751Z,41.90
2018-11-10T14:37:44.583Z,40.27
2018-11-10T14:40:16.244Z,38.40
2018-11-10T14:42:47.163Z,36.47
2018-11-10T14:45:18.992Z,37.83
2018-11-10T14:47:49.648Z,39.93
2018-11-10T14:50:20.153Z,50.63
2018-11-10T14:52:50.827Z,64.50
2018-11-10T14:55:21.191Z,55.23
2018-11-10T14:57:51.693Z,52.23
2018-11-10T15:00:29.410Z,56.23
2018-11-10T15:02:59.855Z,54.13
2018-11-10T15:05:30.372Z,57.07
2018-11-10T15:08:00.863Z,61.67
2018-11-10T15:10:30.673Z,44.60
2018-11-10T15:13:00.943Z,35.67
2018-11-10T15:15:31.493Z,35.63
2018-11-10T15:18:01.930Z,37.73
2018-11-10T15:20:32.384Z,46.67
2018-11-10T15:23:02.120Z,39.60
2018-11-10T15:25:32.444Z,38.00
2018-11-10T15:28:02.973Z,47.83
2018-11-10T15:30:33.603Z,57.57
2018-11-10T15:33:03.909Z,48.93
2018-11-10T15:35:34.380Z,45.47
2018-11-10T15:38:04.840Z,40.83
2018-11-10T15:40:35.191Z,41.77
2018-11-10T15:43:05.633Z,44.70
2018-11-10T15:45:36.013Z,43.80
2018-11-10T15:48:06.644Z,48.33
2018-11-10T15:50:37.477Z,46.13
2018-11-10T15:53:07.118Z,52.57
2018-11-10T15:55:37.454Z,51.37
2018-11-10T15:58:07.703Z,50.83
2018-11-10T16:00:38.275Z,59.67
2018-11-10T16:03:08.658Z,63.27
2018-11-10T16:05:39.128Z,91.80
2018-11-10T16:08:08.872Z,93.23
2018-11-10T16:10:39.318Z,95.30
2018-11-10T16:13:09.624Z,61.17
2018-11-10T16:15:40.125Z,55.43
2018-11-10T16:18:10.685Z,55.23
2018-11-10T16:20:41.388Z,46.33
2018-11-10T16:23:11.860Z,51.00
2018-11-10T16:25:42.378Z,43.47
2018-11-10T16:28:12.947Z,43.83
2018-11-10T16:30:43.422Z,45.97
2018-11-10T16:33:13.880Z,48.37
2018-11-10T16:35:44.404Z,47.33
2018-11-10T16:38:14.868Z,44.60
2018-11-10T16:40:44.671Z,43.03
2018-11-10T16:43:14.912Z,44.97
2018-11-10T16:45:44.892Z,46.23
2018-11-10T16:48:15.286Z,54.17
2018-11-10T16:50:45.911Z,56.30
2018-11-10T16:53:16.277Z,54.33
2018-11-10T16:55:46.764Z,61.70
2018-11-10T16:58:17.275Z,57.87
2018-11-10T17:00:47.863Z,59.80
2018-11-10T17:03:18.322Z,61.40
2018-11-10T17:05:52.827Z,53.17
2018-11-10T17:08:23.233Z,52.63
2018-11-10T17:10:53.845Z,51.07
2018-11-10T17:13:24.503Z,51.80
2018-11-10T17:15:54.993Z,54.53
2018-11-10T17:18:25.568Z,59.70
2018-11-10T17:20:55.789Z,57.43
2018-11-10T17:23:26.216Z,55.33
2018-11-10T17:25:56.801Z,57.23
2018-11-10T17:28:27.495Z,66.70
2018-11-10T17:30:57.368Z,72.77
2018-11-10T17:33:27.715Z,76.30
2018-11-10T17:35:58.513Z,65.30
2018-11-10T17:38:28.663Z,70.30
2018-11-10T17:40:59.110Z,79.77
2018-11-10T17:43:28.822Z,89.00
2018-11-10T17:45:58.756Z,114.40
2018-11-10T17:48:29.082Z,127.63
2018-11-10T17:50:59.600Z,125.27
2018-11-10T17:53:29.412Z,146.10
2018-11-10T17:55:59.533Z,163.00
2018-11-10T17:58:29.420Z,132.87
2018-11-10T18:00:59.880Z,123.23
2018-11-10T18:03:30.053Z,106.83
2018-11-10T18:06:00.221Z,126.97
2018-11-10T18:08:29.749Z,114.03
2018-11-10T18:11:00.242Z,117.53
2018-11-10T18:13:30.089Z,111.00
2018-11-10T18:16:00.473Z,106.87
2018-11-10T18:18:30.406Z,109.67
2018-11-10T18:21:00.856Z,125.07
2018-11-10T18:23:31.182Z,127.80
2018-11-10T18:26:01.817Z,107.43
2018-11-10T18:28:32.197Z,95.17
2018-11-10T18:31:02.486Z,95.37
2018-11-10T18:33:33.052Z,108.87
2018-11-10T18:36:03.553Z,139.77
2018-11-10T18:38:33.956Z,152.43
2018-11-10T18:41:04.350Z,141.80
2018-11-10T18:43:34.870Z,144.07
2018-11-10T18:46:04.944Z,128.93
2018-11-10T18:48:35.709Z,123.63
2018-11-10T18:51:06.416Z,114.47
2018-11-10T18:53:36.989Z,155.53
2018-11-10T18:56:07.484Z,143.53
2018-11-10T18:58:37.957Z,136.23
2018-11-10T19:01:08.472Z,147.23
2018-11-10T19:03:38.386Z,136.67
2018-11-10T19:06:08.750Z,112.40
2018-11-10T19:08:39.755Z,131.70
2018-11-10T19:11:09.484Z,122.53
2018-11-10T19:13:39.811Z,141.67
2018-11-10T19:16:10.589Z,132.77
2018-11-10T19:18:40.948Z,145.93
2018-11-10T19:21:11.132Z,122.67
2018-11-10T19:23:41.541Z,122.70
2018-11-10T19:26:11.802Z,117.07
2018-11-10T19:28:41.673Z,105.13
2018-11-10T19:31:11.874Z,121.07
2018-11-10T19:33:42.369Z,134.67
2018-11-10T19:36:12.185Z,125.27
2018-11-10T19:38:42.513Z,119.93
2018-11-10T19:41:12.865Z,110.87
2018-11-10T19:43:43.482Z,115.47
2018-11-10T19:46:13.907Z,100.20
2018-11-10T19:48:44.130Z,94.50
2018-11-10T19:51:15.720Z,84.53
2018-11-10T19:53:45.606Z,91.47
2018-11-10T19:56:16.040Z,88.43
2018-11-10T19:58:47.033Z,79.20
2018-11-10T20:01:17.612Z,76.67
2018-11-10T20:03:47.800Z,78.57
2018-11-10T20:06:17.977Z,74.93
2018-11-10T20:08:48.432Z,76.10
2018-11-10T20:11:18.838Z,73.27
2018-11-10T20:13:49.474Z,74.33
2018-11-10T20:16:19.980Z,74.80
2018-11-10T20:18:50.678Z,86.97
2018-11-10T20:21:21.359Z,80.07
2018-11-10T20:23:51.896Z,71.77
2018-11-10T20:26:22.442Z,72.67
2018-11-10T20:28:52.861Z,68.93
2018-11-10T20:31:23.249Z,67.63
2018-11-10T20:33:53.744Z,67.93
2018-11-10T20:36:24.198Z,76.73
2018-11-10T20:38:54.748Z,69.67
2018-11-10T20:41:25.325Z,73.07
2018-11-10T20:43:55.944Z,72.60
2018-11-10T20:46:25.724Z,72.70
2018-11-10T20:48:56.054Z,69.57
2018-11-10T20:51:26.611Z,75.10
2018-11-10T20:53:57.061Z,64.33
2018-11-10T20:56:27.525Z,72.40
2018-11-10T20:58:57.948Z,69.10
2018-11-10T21:01:28.363Z,72.90
2018-11-10T21:03:58.754Z,70.33
2018-11-10T21:06:29.165Z,66.17
2018-11-10T21:08:59.893Z,66.43
2018-11-10T21:11:29.644Z,73.03
2018-11-10T21:13:59.925Z,72.47
2018-11-10T21:16:30.362Z,70.07
2018-11-10T21:19:00.694Z,82.60
2018-11-10T21:21:31.281Z,95.17
2018-11-10T21:24:01.806Z,89.30
2018-11-10T21:26:32.218Z,91.33
2018-11-10T21:29:02.885Z,91.77
2018-11-10T21:31:33.160Z,87.80
2018-11-10T21:34:03.394Z,85.27
2018-11-10T21:36:33.806Z,75.50
2018-11-10T21:39:04.813Z,82.07
2018-11-10T21:41:34.871Z,69.63
2018-11-10T21:44:05.397Z,69.97
2018-11-10T21:46:35.884Z,66.63
2018-11-10T21:49:06.606Z,72.97
2018-11-10T21:51:36.944Z,66.70
2018-11-10T21:54:07.399Z,68.30
2018-11-10T21:56:37.896Z,91.93
2018-11-10T21:59:07.815Z,87.10
2018-11-10T22:01:38.293Z,80.63
2018-11-10T22:04:08.777Z,92.57
2018-11-10T22:06:39.453Z,96.43
2018-11-10T22:09:11.819Z,125.50
2018-11-10T22:11:43.593Z,117.13
2018-11-10T22:14:13.840Z,116.33
2018-11-10T22:16:44.500Z,109.07
2018-11-10T22:19:14.414Z,108.63
2018-11-10T22:21:47.255Z,114.93
2018-11-10T22:24:17.436Z,105.40
2018-11-10T22:26:47.858Z,106.00
2018-11-10T22:29:18.308Z,99.63
2018-11-10T22:31:49.003Z,99.23
2018-11-10T22:34:19.688Z,89.30
2018-11-10T22:36:50.076Z,89.10
2018-11-10T22:39:20.415Z,88.23
2018-11-10T22:41:50.774Z,88.70
2018-11-10T22:44:21.215Z,90.60
2018-11-10T22:46:51.606Z,92.57
2018-11-10T22:49:22.237Z,95.03
2018-11-10T22:51:52.825Z,100.43
2018-11-10T22:54:23.295Z,98.37
2018-11-10T22:56:53.907Z,96.90
2018-11-10T22:59:24.138Z,99.83
2018-11-10T23:01:55.715Z,103.53
2018-11-10T23:04:26.131Z,97.27
2018-11-10T23:06:56.540Z,91.00
2018-11-10T23:09:26.868Z,89.93
2018-11-10T23:11:58.037Z,92.83
2018-11-10T23:14:28.361Z,94.97
2018-11-10T23:16:58.708Z,88.53
2018-11-10T23:19:28.553Z,85.50
2018-11-10T23:21:58.947Z,90.87
2018-11-10T23:24:29.276Z,96.57
2018-11-10T23:26:58.983Z,89.70
2018-11-10T23:29:29.447Z,95.27
2018-11-10T23:32:00.043Z,90.80
2018-11-10T23:34:29.723Z,100.37
2018-11-10T23:37:00.218Z,106.33
2018-11-10T23:39:30.547Z,114.37
2018-11-10T23:42:00.907Z,115.77
2018-11-10T23:44:31.195Z,135.13
2018-11-10T23:47:01.652Z,133.97
2018-11-10T23:49:32.031Z,151.27
2018-11-10T23:52:02.587Z,124.27
2018-11-10T23:54:32.940Z,111.37
2018-11-10T23:57:03.523Z,113.97
2018-11-10T23:59:34.125Z,115.97
